createdAt,value
2019-04-30T00:01:36.808Z,30.43
2019-04-30T00:04:12.818Z,31.83
2019-04-30T00:06:45.368Z,34.03
2019-04-30T00:09:19.253Z,33.87
2019-04-30T00:11:57.982Z,31.13
2019-04-30T00:14:27.583Z,37.33
2019-04-30T00:16:58.541Z,28.07
2019-04-30T00:19:29.773Z,33.70
2019-04-30T00:22:01.077Z,29.30
2019-04-30T00:24:32.388Z,29.53
2019-04-30T00:27:05.153Z,28.40
2019-04-30T00:29:36.527Z,34.20
2019-04-30T00:32:08.105Z,30.53
2019-04-30T00:34:39.527Z,28.57
2019-04-30T00:37:13.865Z,32.53
2019-04-30T00:39:50.681Z,32.87
2019-04-30T00:42:23.980Z,30.20
2019-04-30T00:44:50.488Z,28.03
2019-04-30T00:47:21.878Z,28.03
2019-04-30T00:49:57.575Z,30.20
2019-04-30T00:52:29.554Z,29.00
2019-04-30T00:55:00.459Z,31.77
2019-04-30T00:57:36.894Z,30.87
2019-04-30T01:00:07.945Z,29.20
2019-04-30T01:03:00.933Z,28.80
2019-04-30T01:05:32.169Z,31.03
2019-04-30T01:08:04.970Z,28.37
2019-04-30T01:10:38.073Z,30.20
2019-04-30T01:13:11.901Z,30.90
2019-04-30T01:15:44.128Z,27.27
2019-04-30T01:18:15.569Z,33.23
2019-04-30T01:20:48.650Z,26.93
2019-04-30T01:23:20.125Z,30.30
2019-04-30T01:25:51.526Z,29.53
2019-04-30T01:28:24.352Z,28.63
2019-04-30T01:30:58.798Z,31.10
2019-04-30T01:33:34.613Z,28.37
2019-04-30T01:36:04.172Z,27.80
2019-04-30T01:38:40.021Z,29.57
2019-04-30T01:41:09.865Z,27.80
2019-04-30T01:43:41.097Z,33.10
2019-04-30T01:46:14.003Z,29.07
2019-04-30T01:48:50.573Z,29.10
2019-04-30T01:51:21.787Z,26.37
2019-04-30T01:53:51.792Z,29.90
2019-04-30T01:56:41.331Z,26.90
2019-04-30T01:59:18.960Z,29.37
2019-04-30T02:01:51.260Z,40.53
2019-04-30T02:04:22.605Z,38.30
2019-04-30T02:06:53.802Z,29.37
2019-04-30T02:09:25.068Z,34.73
2019-04-30T02:11:56.461Z,32.53
2019-04-30T02:14:28.706Z,27.83
2019-04-30T02:17:00.063Z,25.50
2019-04-30T02:19:31.311Z,34.73
2019-04-30T02:22:02.743Z,26.07
2019-04-30T02:24:33.942Z,26.47
2019-04-30T02:27:05.206Z,27.53
2019-04-30T02:29:39.637Z,28.13
2019-04-30T02:32:10.850Z,27.70
2019-04-30T02:35:00.444Z,28.63
2019-04-30T02:37:36.406Z,30.10
2019-04-30T02:40:09.949Z,30.73
2019-04-30T02:42:40.931Z,29.90
2019-04-30T02:45:12.346Z,28.13
2019-04-30T02:47:43.638Z,27.53
2019-04-30T02:50:18.870Z,26.80
2019-04-30T02:52:50.418Z,28.60
2019-04-30T02:55:41.970Z,25.33
2019-04-30T02:58:13.369Z,28.57
2019-04-30T03:00:44.720Z,28.17
2019-04-30T03:03:16.090Z,28.67
2019-04-30T03:05:49.693Z,27.93
2019-04-30T03:08:20.695Z,25.10
2019-04-30T03:10:52.839Z,27.13
2019-04-30T03:13:24.313Z,27.17
2019-04-30T03:15:55.517Z,26.67
2019-04-30T03:18:34.711Z,26.97
2019-04-30T03:21:09.794Z,27.37
2019-04-30T03:23:41.021Z,30.37
2019-04-30T03:26:13.542Z,27.27
2019-04-30T03:28:45.044Z,28.40
2019-04-30T03:31:16.480Z,26.80
2019-04-30T03:33:51.979Z,25.47
2019-04-30T03:36:21.913Z,29.87
2019-04-30T03:38:54.577Z,28.90
2019-04-30T03:41:25.819Z,25.87
2019-04-30T03:44:16.064Z,27.17
2019-04-30T03:46:30.142Z,27.37
2019-04-30T03:49:01.717Z,26.17
2019-04-30T03:51:32.996Z,28.43
2019-04-30T03:54:04.307Z,27.67
2019-04-30T03:56:35.677Z,29.03
2019-04-30T03:59:10.672Z,27.10
2019-04-30T04:02:00.299Z,27.47
2019-04-30T04:04:34.260Z,22.30
2019-04-30T04:07:16.480Z,24.73
2019-04-30T04:09:55.536Z,26.73
2019-04-30T04:12:30.037Z,29.37
2019-04-30T04:15:03.951Z,35.07
2019-04-30T04:17:35.117Z,31.80
2019-04-30T04:20:07.090Z,33.90
2019-04-30T04:22:40.378Z,30.40
2019-04-30T04:25:13.184Z,30.83
2019-04-30T04:27:45.124Z,30.83
2019-04-30T04:30:16.394Z,31.00
2019-04-30T04:32:50.111Z,33.17
2019-04-30T04:35:21.211Z,29.33
2019-04-30T04:37:52.885Z,31.47
2019-04-30T04:40:24.121Z,27.27
2019-04-30T04:42:55.362Z,28.83
2019-04-30T04:45:26.688Z,26.93
2019-04-30T04:48:00.106Z,27.27
2019-04-30T04:50:31.330Z,29.90
2019-04-30T04:53:02.731Z,22.63
2019-04-30T04:55:34.411Z,23.57
2019-04-30T04:58:06.177Z,23.13
2019-04-30T05:00:39.211Z,27.70
2019-04-30T05:03:12.472Z,22.73
2019-04-30T05:05:43.810Z,23.17
2019-04-30T05:08:15.200Z,27.93
2019-04-30T05:10:47.058Z,23.80
2019-04-30T05:13:19.184Z,22.13
2019-04-30T05:15:51.543Z,25.23
2019-04-30T05:18:23.882Z,21.73
2019-04-30T05:20:59.043Z,21.30
2019-04-30T05:23:30.521Z,24.20
2019-04-30T05:26:02.212Z,20.67
2019-04-30T05:28:33.711Z,17.80
2019-04-30T05:31:05.074Z,18.47
2019-04-30T05:33:36.417Z,16.43
2019-04-30T05:36:09.304Z,16.70
2019-04-30T05:38:41.013Z,22.00
2019-04-30T05:41:12.654Z,16.73
2019-04-30T05:43:44.165Z,19.20
2019-04-30T05:46:15.559Z,23.93
2019-04-30T05:48:46.852Z,17.13
2019-04-30T05:51:21.024Z,19.20
2019-04-30T05:53:52.204Z,17.40
2019-04-30T05:56:23.596Z,19.93
2019-04-30T05:58:55.250Z,16.97
2019-04-30T06:01:26.933Z,21.53
2019-04-30T06:03:59.491Z,22.93
2019-04-30T06:06:33.559Z,20.57
2019-04-30T06:09:14.456Z,19.60
2019-04-30T06:11:59.178Z,17.60
2019-04-30T06:14:32.474Z,15.88
2019-04-30T06:17:09.782Z,16.57
2019-04-30T06:19:41.342Z,12.73
2019-04-30T06:22:32.558Z,12.93
2019-04-30T06:25:05.027Z,15.17
2019-04-30T06:27:36.460Z,12.60
2019-04-30T06:30:11.855Z,12.57
2019-04-30T06:32:41.420Z,13.27
2019-04-30T06:35:13.409Z,12.80
2019-04-30T06:37:44.876Z,11.40
2019-04-30T06:40:16.508Z,12.77
2019-04-30T06:42:49.579Z,14.87
2019-04-30T06:45:21.307Z,12.73
2019-04-30T06:47:53.630Z,10.90
2019-04-30T06:50:25.098Z,12.23
2019-04-30T06:52:58.927Z,14.33
2019-04-30T06:55:30.943Z,11.30
2019-04-30T06:58:11.820Z,13.13
2019-04-30T07:00:36.767Z,13.40
2019-04-30T07:03:09.575Z,11.80
2019-04-30T07:05:41.518Z,13.20
2019-04-30T07:08:39.600Z,9.57
2019-04-30T07:11:22.358Z,15.93
2019-04-30T07:13:53.676Z,13.60
2019-04-30T07:16:25.201Z,12.83
2019-04-30T07:18:58.508Z,11.13
2019-04-30T07:21:31.605Z,14.90
2019-04-30T07:24:03.281Z,15.67
2019-04-30T07:26:34.761Z,14.97
2019-04-30T07:29:06.224Z,11.50
2019-04-30T07:31:39.255Z,11.13
2019-04-30T07:34:10.737Z,12.23
2019-04-30T07:36:48.539Z,10.03
2019-04-30T07:39:15.631Z,15.13
2019-04-30T07:41:49.016Z,11.67
2019-04-30T07:44:30.964Z,12.23
2019-04-30T07:46:54.485Z,12.87
2019-04-30T07:49:45.953Z,13.90
2019-04-30T07:52:01.384Z,10.73
2019-04-30T07:54:32.554Z,12.37
2019-04-30T07:57:04.115Z,11.97
2019-04-30T07:59:35.411Z,15.43
2019-04-30T08:02:13.694Z,13.40
2019-04-30T08:04:47.701Z,14.07
2019-04-30T08:07:19.872Z,13.00
2019-04-30T08:09:51.628Z,9.90
2019-04-30T08:12:30.494Z,14.10
2019-04-30T08:14:56.927Z,12.80
2019-04-30T08:17:28.902Z,10.93
2019-04-30T08:20:00.501Z,15.73
2019-04-30T08:22:31.912Z,13.70
2019-04-30T08:25:04.125Z,11.43
2019-04-30T08:27:35.338Z,12.40
2019-04-30T08:30:20.691Z,9.67
2019-04-30T08:32:40.564Z,13.20
2019-04-30T08:35:12.393Z,9.00
2019-04-30T08:37:43.824Z,11.30
2019-04-30T08:40:15.333Z,12.03
2019-04-30T08:42:46.795Z,12.40
2019-04-30T08:45:19.651Z,10.27
2019-04-30T08:47:51.485Z,12.17
2019-04-30T08:50:22.876Z,10.83
2019-04-30T08:52:54.839Z,13.90
2019-04-30T08:55:26.300Z,7.67
2019-04-30T08:58:09.649Z,11.63
2019-04-30T09:00:30.902Z,10.53
2019-04-30T09:03:02.445Z,12.77
2019-04-30T09:05:35.634Z,10.27
2019-04-30T09:08:09.620Z,9.40
2019-04-30T09:10:41.117Z,11.67
2019-04-30T09:13:12.305Z,10.10
2019-04-30T09:15:43.924Z,11.77
2019-04-30T09:18:15.665Z,10.90
2019-04-30T09:20:47.031Z,13.00
2019-04-30T09:23:18.755Z,12.23
2019-04-30T09:25:50.687Z,12.50
2019-04-30T09:28:22.127Z,11.27
2019-04-30T09:30:55.477Z,9.70
2019-04-30T09:33:26.664Z,15.17
2019-04-30T09:35:59.566Z,14.73
2019-04-30T09:38:31.178Z,12.60
2019-04-30T09:41:02.829Z,9.67
2019-04-30T09:43:34.147Z,13.47
2019-04-30T09:46:15.434Z,8.83
2019-04-30T09:48:39.052Z,9.63
2019-04-30T09:51:11.078Z,12.63
2019-04-30T09:53:55.027Z,16.90
2019-04-30T09:56:16.478Z,10.97
2019-04-30T09:58:49.271Z,11.90
2019-04-30T10:01:22.130Z,10.87
2019-04-30T10:03:55.073Z,11.90
2019-04-30T10:06:37.137Z,15.83
2019-04-30T10:08:59.885Z,13.50
2019-04-30T10:11:50.078Z,11.30
2019-04-30T10:14:21.482Z,13.00
2019-04-30T10:16:54.722Z,12.67
2019-04-30T10:19:26.089Z,16.50
2019-04-30T10:21:58.980Z,11.33
2019-04-30T10:24:30.498Z,12.13
2019-04-30T10:27:01.872Z,9.00
2019-04-30T10:29:33.389Z,12.00
2019-04-30T10:32:04.732Z,9.33
2019-04-30T10:34:36.228Z,13.27
2019-04-30T10:37:09.002Z,9.07
2019-04-30T10:39:40.417Z,13.40
2019-04-30T10:42:11.835Z,11.17
2019-04-30T10:44:43.365Z,12.00
2019-04-30T10:47:15.656Z,9.40
2019-04-30T10:49:48.673Z,8.90
2019-04-30T10:52:20.297Z,7.40
2019-04-30T10:54:51.678Z,11.90
2019-04-30T10:57:23.063Z,9.20
2019-04-30T10:59:55.787Z,7.10
2019-04-30T11:02:28.818Z,11.07
2019-04-30T11:05:00.316Z,8.43
2019-04-30T11:07:31.832Z,10.20
2019-04-30T11:10:05.723Z,10.83
2019-04-30T11:12:39.089Z,9.00
2019-04-30T11:15:10.457Z,7.57
2019-04-30T11:17:42.176Z,8.97
2019-04-30T11:20:13.940Z,10.73
2019-04-30T11:22:45.557Z,8.53
2019-04-30T11:25:17.363Z,9.10
2019-04-30T11:27:51.263Z,8.47
2019-04-30T11:30:24.290Z,11.27
2019-04-30T11:32:56.313Z,16.97
2019-04-30T11:35:29.690Z,13.53
2019-04-30T11:38:02.585Z,9.23
2019-04-30T11:40:36.870Z,9.30
2019-04-30T11:43:07.254Z,12.30
2019-04-30T11:45:54.692Z,10.17
2019-04-30T11:48:26.013Z,9.27
2019-04-30T11:50:59.424Z,9.77
2019-04-30T11:53:31.496Z,8.87
2019-04-30T11:56:02.833Z,8.87
2019-04-30T11:58:34.260Z,11.53
2019-04-30T12:01:09.380Z,11.30
2019-04-30T12:03:40.991Z,10.90
2019-04-30T12:06:12.396Z,11.20
2019-04-30T12:09:00.483Z,15.03
2019-04-30T12:11:39.958Z,15.27
2019-04-30T12:14:11.244Z,11.50
2019-04-30T12:16:42.474Z,12.33
2019-04-30T12:19:14.242Z,17.50
2019-04-30T12:21:45.902Z,11.73
2019-04-30T12:24:17.366Z,15.33
2019-04-30T12:26:48.997Z,12.27
2019-04-30T12:29:21.707Z,10.27
2019-04-30T12:31:53.081Z,8.77
2019-04-30T12:34:24.325Z,12.33
2019-04-30T12:36:55.627Z,12.90
2019-04-30T12:39:28.411Z,11.77
2019-04-30T12:42:02.144Z,8.00
2019-04-30T12:44:33.745Z,13.57
2019-04-30T12:47:04.986Z,11.67
2019-04-30T12:49:53.460Z,12.50
2019-04-30T12:52:30.004Z,10.03
2019-04-30T12:55:15.465Z,17.00
2019-04-30T12:57:58.274Z,9.23
2019-04-30T13:00:21.614Z,6.97
2019-04-30T13:02:53.279Z,12.07
2019-04-30T13:05:24.620Z,11.50
2019-04-30T13:07:56.944Z,11.70
2019-04-30T13:10:30.507Z,6.37
2019-04-30T13:13:02.576Z,7.53
2019-04-30T13:15:34.758Z,7.20
2019-04-30T13:18:06.353Z,8.30
2019-04-30T13:20:39.194Z,8.93
2019-04-30T13:23:10.860Z,7.63
2019-04-30T13:25:51.061Z,12.90
2019-04-30T13:28:26.625Z,7.90
2019-04-30T13:30:59.281Z,10.00
2019-04-30T13:33:42.112Z,7.63
2019-04-30T13:36:13.609Z,8.23
2019-04-30T13:38:52.201Z,8.57
2019-04-30T13:41:25.061Z,16.07
2019-04-30T13:43:58.770Z,7.95
2019-04-30T13:46:30.574Z,7.17
2019-04-30T13:49:02.047Z,10.57
2019-04-30T13:51:33.514Z,14.87
2019-04-30T13:54:05.135Z,10.33
2019-04-30T13:56:37.026Z,8.83
2019-04-30T13:59:08.715Z,7.90
2019-04-30T14:01:40.117Z,7.93
2019-04-30T14:04:16.482Z,8.07
2019-04-30T14:06:49.824Z,10.10
2019-04-30T14:09:23.265Z,18.13
2019-04-30T14:11:54.783Z,12.60
2019-04-30T14:14:26.296Z,10.00
2019-04-30T14:16:58.694Z,9.30
2019-04-30T14:19:31.295Z,22.03
2019-04-30T14:22:02.976Z,9.80
2019-04-30T14:24:36.014Z,12.73
2019-04-30T14:27:08.983Z,12.50
2019-04-30T14:29:40.387Z,14.70
2019-04-30T14:32:12.797Z,8.23
2019-04-30T14:34:44.148Z,12.10
2019-04-30T14:37:15.725Z,12.63
2019-04-30T14:39:47.337Z,9.63
2019-04-30T14:42:20.482Z,10.83
2019-04-30T14:45:04.224Z,9.43
2019-04-30T14:47:53.402Z,12.33
2019-04-30T14:50:28.576Z,7.27
2019-04-30T14:53:04.664Z,7.90
2019-04-30T14:55:39.306Z,11.53
2019-04-30T14:58:29.287Z,12.73
2019-04-30T15:01:05.763Z,20.72
2019-04-30T15:03:39.374Z,9.83
2019-04-30T15:06:10.730Z,20.17
2019-04-30T15:08:42.065Z,18.77
2019-04-30T15:11:13.764Z,11.23
2019-04-30T15:13:45.279Z,8.53
2019-04-30T15:16:16.765Z,11.07
2019-04-30T15:18:48.072Z,12.97
2019-04-30T15:21:19.637Z,16.03
2019-04-30T15:24:00.896Z,10.27
2019-04-30T15:26:29.031Z,11.77
2019-04-30T15:29:00.359Z,12.53
2019-04-30T15:31:31.817Z,12.57
2019-04-30T15:34:11.227Z,10.93
2019-04-30T15:36:42.645Z,10.50
2019-04-30T15:39:15.961Z,10.63
2019-04-30T15:41:47.728Z,11.30
2019-04-30T15:44:19.110Z,12.27
2019-04-30T15:46:50.406Z,9.90
2019-04-30T15:49:22.087Z,10.67
2019-04-30T15:51:53.326Z,10.57
2019-04-30T15:54:24.737Z,14.30
2019-04-30T15:56:56.057Z,10.40
2019-04-30T15:59:29.209Z,8.57
2019-04-30T16:02:02.435Z,8.37
2019-04-30T16:04:42.125Z,9.70
2019-04-30T16:07:13.584Z,11.07
2019-04-30T16:10:02.363Z,11.53
2019-04-30T16:12:52.451Z,8.43
2019-04-30T16:15:29.909Z,10.05
2019-04-30T16:18:02.728Z,10.47
2019-04-30T16:20:34.189Z,7.17
2019-04-30T16:23:05.893Z,12.23
2019-04-30T16:25:38.985Z,10.87
2019-04-30T16:28:10.655Z,12.00
2019-04-30T16:30:42.920Z,8.80
2019-04-30T16:33:15.011Z,8.80
2019-04-30T16:35:46.312Z,10.83
2019-04-30T16:38:18.382Z,15.30
2019-04-30T16:40:50.860Z,13.03
2019-04-30T16:43:22.202Z,14.23
2019-04-30T16:45:53.529Z,10.77
2019-04-30T16:48:24.724Z,10.27
2019-04-30T16:50:56.199Z,12.90
2019-04-30T16:53:27.528Z,10.07
2019-04-30T16:55:59.375Z,10.97
2019-04-30T16:58:32.614Z,13.60
2019-04-30T17:01:05.305Z,8.90
2019-04-30T17:03:38.905Z,12.60
2019-04-30T17:06:14.936Z,12.17
2019-04-30T17:09:04.749Z,13.40
2019-04-30T17:11:55.267Z,13.85
2019-04-30T17:14:28.492Z,14.28
2019-04-30T17:17:00.061Z,12.03
2019-04-30T17:19:31.565Z,13.00
2019-04-30T17:22:02.949Z,12.83
2019-04-30T17:24:34.291Z,12.50
2019-04-30T17:27:16.462Z,17.17
2019-04-30T17:29:38.780Z,7.30
2019-04-30T17:32:10.608Z,15.47
2019-04-30T17:34:42.034Z,25.43
2019-04-30T17:37:13.575Z,22.63
2019-04-30T17:39:44.911Z,23.07
2019-04-30T17:42:16.781Z,17.60
2019-04-30T17:44:56.446Z,24.90
2019-04-30T17:47:21.545Z,18.53
2019-04-30T17:49:53.028Z,24.60
2019-04-30T17:52:26.336Z,19.07
2019-04-30T17:54:59.479Z,29.67
2019-04-30T17:57:34.409Z,19.03
2019-04-30T18:00:16.033Z,18.97
2019-04-30T18:02:39.981Z,22.73
2019-04-30T18:05:11.684Z,22.50
2019-04-30T18:07:43.359Z,16.00
2019-04-30T18:10:16.964Z,21.37
2019-04-30T18:12:48.196Z,21.80
2019-04-30T18:15:21.815Z,21.67
2019-04-30T18:18:07.255Z,33.73
2019-04-30T18:20:40.535Z,28.27
2019-04-30T18:26:17.780Z,32.43
2019-04-30T18:28:48.965Z,29.57
2019-04-30T18:31:20.694Z,37.63
2019-04-30T18:33:52.176Z,28.87
2019-04-30T18:36:23.377Z,33.87
2019-04-30T18:38:54.673Z,27.77
2019-04-30T18:41:26.362Z,36.87
2019-04-30T18:43:59.573Z,31.23
2019-04-30T18:46:30.743Z,28.87
2019-04-30T18:49:02.162Z,27.83
2019-04-30T18:51:39.517Z,30.43
2019-04-30T18:54:06.745Z,34.67
2019-04-30T18:56:38.960Z,37.70
2019-04-30T18:59:11.093Z,35.63
2019-04-30T19:01:42.636Z,51.73
2019-04-30T19:04:14.013Z,27.30
2019-04-30T19:06:45.246Z,28.97
2019-04-30T19:09:34.881Z,32.23
2019-04-30T19:12:08.527Z,20.90
2019-04-30T19:14:43.762Z,22.97
2019-04-30T19:17:33.701Z,25.10
2019-04-30T19:20:18.664Z,20.72
2019-04-30T19:22:49.929Z,25.03
2019-04-30T19:25:21.166Z,24.53
2019-04-30T19:27:52.398Z,21.50
2019-04-30T19:30:23.658Z,23.03
2019-04-30T19:32:54.955Z,25.57
2019-04-30T19:35:26.273Z,24.97
2019-04-30T19:37:59.249Z,31.47
2019-04-30T19:40:30.681Z,36.90
2019-04-30T19:43:01.937Z,35.93
2019-04-30T19:45:34.192Z,41.13
2019-04-30T19:48:05.534Z,51.70
2019-04-30T19:50:36.990Z,50.93
2019-04-30T19:53:08.782Z,55.10
2019-04-30T19:55:40.157Z,52.07
2019-04-30T19:58:24.782Z,59.70
2019-04-30T20:00:44.732Z,64.80
2019-04-30T20:03:16.032Z,64.43
2019-04-30T20:05:47.413Z,93.57
2019-04-30T20:08:19.856Z,78.93
2019-04-30T20:10:51.593Z,84.73
2019-04-30T20:13:36.177Z,97.67
2019-04-30T20:15:56.192Z,115.93
2019-04-30T20:18:29.238Z,97.87
2019-04-30T20:21:02.577Z,86.90
2019-04-30T20:23:34.172Z,73.87
2019-04-30T20:26:05.461Z,75.53
2019-04-30T20:28:39.952Z,72.40
2019-04-30T20:31:11.580Z,65.90
2019-04-30T20:45:06.037Z,59.85
2019-04-30T20:47:37.266Z,55.77
2019-04-30T20:50:08.689Z,59.27
2019-04-30T20:52:40.008Z,54.37
2019-04-30T20:55:11.407Z,50.50
2019-04-30T20:57:42.669Z,49.40
2019-04-30T21:00:14.089Z,54.83
2019-04-30T21:02:45.445Z,52.20
2019-04-30T21:05:16.806Z,51.37
2019-04-30T21:07:48.129Z,52.00
2019-04-30T21:10:19.922Z,52.33
2019-04-30T21:12:51.669Z,54.27
2019-04-30T21:15:22.946Z,58.20
2019-04-30T21:17:54.380Z,54.17
2019-04-30T21:20:25.620Z,50.23
2019-04-30T21:22:56.856Z,52.50
2019-04-30T21:25:29.119Z,50.37
2019-04-30T21:28:01.778Z,55.37
2019-04-30T21:30:33.013Z,57.57
2019-04-30T21:33:12.142Z,60.07
2019-04-30T21:35:48.600Z,52.27
2019-04-30T21:38:21.297Z,68.67
2019-04-30T21:40:52.600Z,73.73
2019-04-30T21:43:24.182Z,66.80
2019-04-30T21:45:55.524Z,69.23
2019-04-30T21:48:28.714Z,67.93
2019-04-30T21:51:00.187Z,63.23
2019-04-30T21:53:31.600Z,72.33
2019-04-30T21:56:03.125Z,62.80
2019-04-30T21:58:35.800Z,67.73
2019-04-30T22:01:12.541Z,69.07
2019-04-30T22:03:46.546Z,66.97
2019-04-30T22:06:19.587Z,65.70
2019-04-30T22:08:51.049Z,74.03
2019-04-30T22:11:22.484Z,70.40
2019-04-30T22:13:53.716Z,66.00
2019-04-30T22:16:24.982Z,70.77
2019-04-30T22:18:56.263Z,66.93
2019-04-30T22:21:28.306Z,66.03
2019-04-30T22:24:00.776Z,59.17
2019-04-30T22:26:31.993Z,50.73
2019-04-30T22:29:03.224Z,42.73
2019-04-30T22:31:34.510Z,53.60
2019-04-30T22:34:05.973Z,46.27
2019-04-30T22:36:39.119Z,35.53
2019-04-30T22:39:15.018Z,37.13
2019-04-30T22:41:46.422Z,34.93
2019-04-30T22:44:17.754Z,49.23
2019-04-30T22:46:49.268Z,43.13
2019-04-30T22:49:20.905Z,46.73
2019-04-30T22:51:52.477Z,45.77
2019-04-30T22:54:24.066Z,42.53
2019-04-30T22:56:55.925Z,48.13
2019-04-30T22:59:27.299Z,51.93
2019-04-30T23:02:03.170Z,54.20
2019-04-30T23:04:38.989Z,53.40
2019-04-30T23:07:10.313Z,52.77
2019-04-30T23:09:41.641Z,54.20
2019-04-30T23:12:12.852Z,52.23
2019-04-30T23:14:44.322Z,52.17
2019-04-30T23:17:15.583Z,54.80
2019-04-30T23:19:49.533Z,50.43
2019-04-30T23:22:20.373Z,51.33
2019-04-30T23:24:51.793Z,53.50
2019-04-30T23:27:23.032Z,44.77
2019-04-30T23:30:03.065Z,50.03
2019-04-30T23:32:27.578Z,54.47
2019-04-30T23:34:58.775Z,51.13
2019-04-30T23:37:30.304Z,52.03
2019-04-30T23:40:22.705Z,45.10
2019-04-30T23:42:54.115Z,46.97
2019-04-30T23:45:26.012Z,45.53
2019-04-30T23:47:57.595Z,40.43
2019-04-30T23:50:28.843Z,35.00
2019-04-30T23:53:00.298Z,41.13
2019-04-30T23:55:31.943Z,40.77
2019-04-30T23:58:03.493Z,45.60
